Time;durP1;ratioP1;P1;durP2;ratioP2;P2;SDS_P1;SDS_P2;PMS_P1;PMS_P2;Temp;Humidity;BMP_temperature;BMP_pressure;BME280_temperature;BME280_humidity;BME280_pressure;Samples;Min_cycle;Max_cycle;Signal;HPM_P1;HPM_P2
2023/02/01 00:02:02;;;;;;;29.98;5.50;;;;;;;3.95;94.45;100354.59;5069937;28;20053;-58
2023/02/01 00:04:30;;;;;;;23.73;5.15;;;;;;;3.95;95.26;100342.41;5064950;28;20052;-58
2023/02/01 00:06:57;;;;;;;32.65;4.10;;;;;;;3.96;95.25;100335.44;5061510;28;20052;-59
2023/02/01 00:09:24;;;;;;;31.92;5.82;;;;;;;3.95;96.19;100333.75;5069177;28;20082;-60
2023/02/01 00:11:52;;;;;;;46.08;6.18;;;;;;;3.86;97.00;100323.69;5068178;28;20060;-61
2023/02/01 00:14:19;;;;;;;34.05;7.57;;;;;;;3.77;97.37;100319.66;5066166;28;20132;-57
2023/02/01 00:16:46;;;;;;;26.58;5.05;;;;;;;3.79;97.43;100334.31;5067791;28;20538;-60
2023/02/01 00:19:14;;;;;;;34.15;5.15;;;;;;;3.75;97.79;100330.13;5069471;28;20060;-61
2023/02/01 00:21:43;;;;;;;35.88;5.85;;;;;;;3.83;96.92;100342.00;5061835;28;20113;-61
2023/02/01 00:24:11;;;;;;;26.15;5.88;;;;;;;3.81;96.97;100327.28;5067504;28;20080;-57
2023/02/01 00:26:43;;;;;;;24.52;5.65;;;;;;;3.83;95.46;100327.25;5061119;28;20139;-55
2023/02/01 00:29:13;;;;;;;33.25;5.50;;;;;;;3.87;94.09;100326.22;5064806;28;20388;-60
2023/02/01 00:31:41;;;;;;;23.17;5.72;;;;;;;3.88;94.55;100319.28;5068628;28;20044;-60
2023/02/01 00:34:11;;;;;;;27.25;4.30;;;;;;;3.92;93.40;100328.69;5069362;28;20131;-59
2023/02/01 00:36:39;;;;;;;26.42;5.13;;;;;;;3.91;93.62;100322.59;5062979;28;20129;-61
2023/02/01 00:39:06;;;;;;;28.20;4.75;;;;;;;3.90;93.05;100328.72;5064547;28;20521;-59
2023/02/01 00:41:33;;;;;;;27.38;5.32;;;;;;;3.92;92.87;100326.94;5068845;28;20690;-60
2023/02/01 00:44:01;;;;;;;32.38;5.63;;;;;;;3.92;92.07;100332.13;5062939;28;20076;-59
2023/02/01 00:46:28;;;;;;;19.80;3.53;;;;;;;3.92;92.58;100329.53;5068054;28;20139;-61
2023/02/01 00:48:55;;;;;;;32.35;4.70;;;;;;;3.92;92.36;100339.94;5068675;28;20525;-60
2023/02/01 00:51:25;;;;;;;25.15;4.35;;;;;;;3.90;92.18;100338.28;5068765;28;20052;-59
2023/02/01 00:53:53;;;;;;;25.90;5.18;;;;;;;3.88;92.37;100343.56;5065568;28;20059;-62
2023/02/01 00:56:20;;;;;;;31.20;5.25;;;;;;;3.94;92.43;100338.13;5067607;28;20490;-58
2023/02/01 00:58:47;;;;;;;19.58;4.20;;;;;;;3.93;92.36;100349.44;5068668;28;20052;-62
2023/02/01 01:01:18;;;;;;;25.98;3.97;;;;;;;3.87;93.25;100351.41;5068841;28;20080;-60
2023/02/01 01:03:50;;;;;;;18.27;3.75;;;;;;;3.82;93.47;100348.97;5063909;28;20053;-58
2023/02/01 01:06:20;;;;;;;20.85;3.88;;;;;;;3.90;93.79;100357.38;5066613;28;20053;-59
2023/02/01 01:08:48;;;;;;;24.63;4.10;;;;;;;3.80;93.67;100351.63;5067437;28;20052;-60
2023/02/01 01:11:18;;;;;;;13.73;3.45;;;;;;;3.76;94.32;100347.44;5066703;28;20060;-59
2023/02/01 01:13:49;;;;;;;24.05;3.60;;;;;;;3.75;94.18;100339.69;5065146;28;20508;-61
2023/02/01 01:16:17;;;;;;;22.33;4.35;;;;;;;3.72;94.14;100338.03;5066038;28;20045;-59
2023/02/01 01:18:44;;;;;;;18.60;4.20;;;;;;;3.65;94.91;100348.72;5065743;28;20068;-59
2023/02/01 01:21:14;;;;;;;24.55;4.05;;;;;;;3.65;95.17;100338.28;5060456;28;20137;-59
2023/02/01 01:23:41;;;;;;;21.30;4.22;;;;;;;3.64;94.83;100336.59;5067734;28;20440;-58
2023/02/01 01:26:13;;;;;;;21.70;3.90;;;;;;;3.60;94.91;100330.66;5068623;28;20055;-60
2023/02/01 01:28:40;;;;;;;18.25;3.83;;;;;;;3.59;95.70;100325.50;5065606;28;20348;-60
2023/02/01 01:31:12;;;;;;;20.33;4.95;;;;;;;3.60;95.60;100322.00;5065933;28;20048;-60
2023/02/01 01:33:39;;;;;;;21.40;3.25;;;;;;;3.58;95.49;100321.22;5067751;28;20057;-60
2023/02/01 01:36:10;;;;;;;18.30;3.72;;;;;;;3.57;95.63;100327.31;5068425;28;20155;-59
2023/02/01 01:38:40;;;;;;;22.92;3.83;;;;;;;3.53;96.00;100313.56;5064921;28;20147;-59
2023/02/01 01:41:12;;;;;;;21.83;4.07;;;;;;;3.52;95.11;100302.31;5068225;28;20139;-58
2023/02/01 01:43:52;;;;;;;26.05;4.93;;;;;;;3.54;95.06;100304.84;5064012;28;20083;-55
2023/02/01 01:46:22;;;;;;;21.13;4.07;;;;;;;3.56;94.65;100303.06;5066643;28;20048;-59
2023/02/01 01:48:58;;;;;;;27.58;4.68;;;;;;;3.58;94.00;100310.81;5068149;28;20080;-59
2023/02/01 01:51:27;;;;;;;23.33;4.75;;;;;;;3.63;94.23;100308.88;5066969;28;20141;-59
2023/02/01 01:54:09;;;;;;;30.42;5.10;;;;;;;3.62;93.77;100304.59;5057308;28;20056;-59
2023/02/01 01:56:36;;;;;;;25.30;5.03;;;;;;;3.64;92.99;100313.19;5065359;28;20568;-58
2023/02/01 01:59:05;;;;;;;23.30;4.15;;;;;;;3.65;92.96;100301.84;5066897;28;20135;-60
2023/02/01 02:01:32;;;;;;;24.90;4.45;;;;;;;3.64;93.27;100305.38;5067849;28;20128;-58
2023/02/01 02:04:00;;;;;;;22.70;3.58;;;;;;;3.65;93.27;100301.84;5067231;28;20116;-59
2023/02/01 02:06:57;;;;;;;19.35;3.70;;;;;;;3.62;93.20;100309.78;5066169;28;20128;-58
2023/02/01 02:09:24;;;;;;;24.10;4.88;;;;;;;3.70;92.39;100292.16;5064210;28;20501;-58
2023/02/01 02:11:51;;;;;;;19.25;3.42;;;;;;;3.69;92.82;100306.06;5065875;28;20084;-60
2023/02/01 02:14:19;;;;;;;37.03;5.07;;;;;;;3.70;92.35;100292.16;5066898;28;20123;-60
2023/02/01 02:17:05;;;;;;;24.65;4.22;;;;;;;3.65;92.27;100310.53;5066450;28;20079;-60
2023/02/01 02:20:04;;;;;;;24.13;4.60;;;;;;;3.69;92.65;100313.84;5065768;28;20136;-59
2023/02/01 02:22:59;;;;;;;16.83;3.00;;;;;;;3.70;92.17;100315.59;5068285;28;20044;-59
2023/02/01 02:25:47;;;;;;;25.58;4.18;;;;;;;3.73;92.43;100299.84;5058059;28;20171;-60
2023/02/01 02:28:26;;;;;;;21.48;3.75;;;;;;;3.69;91.53;100299.13;5063761;28;20446;-60
2023/02/01 02:31:26;;;;;;;24.70;5.28;;;;;;;3.69;92.34;100283.50;5065249;28;20725;-56
2023/02/01 02:34:14;;;;;;;31.85;4.95;;;;;;;3.73;91.82;100287.66;5069665;28;22661;-58
2023/02/01 02:37:00;;;;;;;25.45;4.03;;;;;;;3.68;92.58;100299.16;5064360;28;20509;-59
2023/02/01 02:39:54;;;;;;;24.58;5.07;;;;;;;3.73;92.11;100282.44;5071076;28;20143;-60
2023/02/01 02:48:29;;;;;;;22.15;4.53;;;;;;;3.72;92.07;100280.75;5064374;28;20064;-61
2023/02/01 03:05:13;;;;;;;24.08;4.07;;;;;;;3.71;91.48;100296.44;5071038;28;20436;-60
2023/02/01 03:08:03;;;;;;;23.52;3.90;;;;;;;3.80;91.50;100275.28;5070686;28;20446;-59
2023/02/01 03:10:53;;;;;;;35.13;5.57;;;;;;;3.73;91.88;100273.78;5063923;28;20055;-58
2023/02/01 03:13:49;;;;;;;24.25;5.07;;;;;;;3.67;92.21;100269.66;5065858;28;20052;-60
2023/02/01 03:16:27;;;;;;;26.38;4.97;;;;;;;3.75;92.91;100269.41;5070630;28;20040;-54
2023/02/01 03:19:33;;;;;;;26.50;4.50;;;;;;;3.76;92.21;100255.47;5070393;28;20135;-57
2023/02/01 03:22:07;;;;;;;24.90;5.85;;;;;;;3.73;92.52;100240.81;5063502;28;20052;-59
2023/02/01 03:24:37;;;;;;;28.60;5.47;;;;;;;3.80;92.29;100252.69;5057342;28;20055;-59
2023/02/01 03:27:19;;;;;;;33.70;5.93;;;;;;;3.78;92.69;100245.84;5062536;28;20060;-59
2023/02/01 03:30:05;;;;;;;27.25;4.38;;;;;;;3.74;92.09;100246.88;5067391;28;20055;-60
2023/02/01 03:32:58;;;;;;;24.92;5.13;;;;;;;3.75;92.36;100245.97;5070372;28;20147;-59
2023/02/01 03:35:47;;;;;;;23.40;4.10;;;;;;;3.82;91.98;100229.19;5067417;28;20500;-58
2023/02/01 03:38:45;;;;;;;21.75;4.32;;;;;;;3.78;91.48;100222.41;5045646;28;20430;-59
2023/02/01 03:41:19;;;;;;;33.92;5.22;;;;;;;3.75;91.60;100228.59;5069791;28;20655;-59
2023/02/01 03:43:58;;;;;;;27.67;5.30;;;;;;;3.76;91.79;100224.22;5063694;28;20044;-58
2023/02/01 03:46:32;;;;;;;25.40;4.05;;;;;;;3.74;92.42;100213.88;5069455;28;20044;-60
2023/02/01 03:49:03;;;;;;;35.72;5.10;;;;;;;3.74;92.21;100216.50;5069005;28;20140;-60
2023/02/01 03:51:32;;;;;;;26.15;5.45;;;;;;;3.74;92.37;100218.25;5068761;28;20057;-58
2023/02/01 03:54:01;;;;;;;30.35;5.40;;;;;;;3.78;92.26;100222.41;5066442;28;20048;-60
2023/02/01 03:56:29;;;;;;;32.05;4.93;;;;;;;3.76;91.84;100221.63;5061207;28;20110;-59
2023/02/01 03:59:00;;;;;;;25.75;4.10;;;;;;;3.82;91.90;100213.56;5070052;28;20059;-58
2023/02/01 04:01:30;;;;;;;27.90;5.38;;;;;;;3.83;92.10;100217.91;5068731;28;20558;-59
2023/02/01 04:03:58;;;;;;;24.30;4.50;;;;;;;3.84;91.94;100217.00;5066829;28;20120;-60
2023/02/01 04:06:25;;;;;;;31.23;5.45;;;;;;;3.83;91.66;100217.03;5068973;28;20075;-59
2023/02/01 04:08:52;;;;;;;32.00;5.72;;;;;;;3.86;91.71;100219.53;5067552;28;20576;-57
2023/02/01 04:11:19;;;;;;;28.92;5.65;;;;;;;3.81;91.23;100223.16;5066453;28;20526;-60
2023/02/01 04:13:47;;;;;;;28.33;4.85;;;;;;;3.91;91.08;100207.16;5068844;28;20412;-60
2023/02/01 04:16:14;;;;;;;28.45;5.63;;;;;;;3.95;90.32;100220.00;5068962;28;20061;-59
2023/02/01 04:18:41;;;;;;;22.75;4.70;;;;;;;3.94;91.02;100243.53;5067200;28;20135;-59
2023/02/01 04:21:08;;;;;;;22.85;5.20;;;;;;;3.95;91.17;100207.00;5070045;28;20531;-59
2023/02/01 04:23:36;;;;;;;28.17;4.80;;;;;;;4.00;90.65;100214.63;5065303;28;20048;-60
2023/02/01 04:26:04;;;;;;;32.40;4.65;;;;;;;4.01;90.40;100230.22;5064041;28;20143;-59
2023/02/01 04:28:31;;;;;;;29.85;4.68;;;;;;;4.02;90.75;100221.50;5068434;28;20053;-58
2023/02/01 04:30:58;;;;;;;30.95;5.90;;;;;;;4.07;90.71;100203.09;5070168;28;20568;-58
2023/02/01 04:33:26;;;;;;;31.70;5.13;;;;;;;4.12;89.95;100229.78;5067226;28;20147;-58
2023/02/01 04:35:53;;;;;;;20.67;4.65;;;;;;;4.11;90.25;100217.69;5062339;28;20049;-58
2023/02/01 04:38:21;;;;;;;34.90;7.00;;;;;;;4.11;90.03;100206.41;5067814;28;20531;-60
2023/02/01 04:40:49;;;;;;;23.65;4.75;;;;;;;4.09;90.78;100203.00;5067559;28;20103;-58
2023/02/01 04:43:17;;;;;;;29.52;5.15;;;;;;;4.09;90.30;100216.88;5066057;28;20052;-59
2023/02/01 04:45:48;;;;;;;31.85;5.43;;;;;;;4.12;89.91;100226.34;5068774;28;20139;-59
2023/02/01 04:48:16;;;;;;;26.05;4.95;;;;;;;4.18;90.35;100215.69;5068366;28;20057;-60
2023/02/01 04:50:47;;;;;;;23.42;5.20;;;;;;;4.17;90.56;100209.63;5058601;28;20083;-58
2023/02/01 04:53:15;;;;;;;24.48;4.95;;;;;;;4.21;89.71;100206.00;5067985;28;20144;-59
2023/02/01 04:55:42;;;;;;;30.15;5.65;;;;;;;4.21;90.36;100210.34;5060000;28;20055;-59
2023/02/01 04:58:10;;;;;;;22.83;4.68;;;;;;;4.26;89.52;100198.84;5068712;28;20143;-60
2023/02/01 05:00:37;;;;;;;30.88;4.97;;;;;;;4.27;90.54;100207.50;5067212;28;20052;-59
2023/02/01 05:03:05;;;;;;;28.85;5.60;;;;;;;4.35;89.58;100200.22;5064767;28;20048;-58
2023/02/01 05:05:32;;;;;;;30.13;5.68;;;;;;;4.32;89.48;100201.22;5067883;28;20055;-60
2023/02/01 05:07:59;;;;;;;19.10;4.00;;;;;;;4.32;89.91;100182.09;5066623;28;20625;-61
2023/02/01 05:10:26;;;;;;;28.05;5.45;;;;;;;4.34;89.89;100189.88;5069325;28;20412;-60
2023/02/01 05:15:39;;;;;;;36.38;6.43;;;;;;;4.36;89.38;100177.63;5063590;28;20131;-60
2023/02/01 05:18:06;;;;;;;38.65;5.45;;;;;;;4.38;88.49;100176.66;5069371;28;20134;-58
2023/02/01 05:20:33;;;;;;;20.30;4.90;;;;;;;4.41;88.72;100175.66;5068143;28;20501;-60
2023/02/01 05:23:00;;;;;;;24.77;5.32;;;;;;;4.43;88.81;100174.72;5067517;28;20109;-58
2023/02/01 05:25:28;;;;;;;33.17;5.00;;;;;;;4.42;88.10;100173.03;5060930;28;20059;-58
2023/02/01 05:27:55;;;;;;;23.75;5.22;;;;;;;4.43;88.33;100176.47;5062592;28;20131;-60
2023/02/01 05:30:22;;;;;;;25.92;4.90;;;;;;;4.42;87.78;100167.81;5065749;28;20398;-58
2023/02/01 05:32:51;;;;;;;25.95;5.97;;;;;;;4.48;87.92;100166.69;5068605;28;20083;-59
2023/02/01 05:35:19;;;;;;;26.65;4.95;;;;;;;4.48;87.96;100162.34;5066133;28;20417;-58
2023/02/01 05:37:46;;;;;;;24.67;4.78;;;;;;;4.53;88.21;100162.16;5067929;28;20135;-61
2023/02/01 05:40:13;;;;;;;29.30;5.47;;;;;;;4.52;87.51;100173.50;5067235;28;20048;-61
2023/02/01 05:42:40;;;;;;;34.83;6.15;;;;;;;4.54;86.80;100162.06;5068636;28;20135;-59
2023/02/01 05:45:08;;;;;;;30.75;6.50;;;;;;;4.51;86.59;100177.84;5068114;28;20156;-61
2023/02/01 05:47:35;;;;;;;29.85;6.00;;;;;;;4.52;86.80;100163.91;5059620;28;20091;-60
2023/02/01 05:50:04;;;;;;;23.88;4.82;;;;;;;4.54;87.14;100156.00;5066778;28;20095;-59
2023/02/01 05:52:32;;;;;;;26.05;5.10;;;;;;;4.51;87.49;100145.72;5066197;28;20049;-61
2023/02/01 05:54:59;;;;;;;24.33;5.50;;;;;;;4.53;88.09;100149.13;5066011;28;20619;-59
2023/02/01 05:57:26;;;;;;;33.45;5.13;;;;;;;4.55;88.15;100142.09;5068280;28;20158;-60
2023/02/01 05:59:53;;;;;;;29.40;4.78;;;;;;;4.58;87.79;100141.94;5066987;28;20052;-60
2023/02/01 06:02:21;;;;;;;24.20;5.28;;;;;;;4.50;87.85;100133.59;5068334;28;20061;-58
2023/02/01 06:04:48;;;;;;;24.75;5.30;;;;;;;4.56;87.41;100138.56;5066603;28;20052;-59
2023/02/01 06:07:16;;;;;;;28.75;5.47;;;;;;;4.62;87.41;100153.09;5071264;28;20048;-59
2023/02/01 06:09:43;;;;;;;32.33;4.68;;;;;;;4.57;86.90;100135.03;5071344;28;20533;-57
2023/02/01 06:12:10;;;;;;;27.45;5.18;;;;;;;4.58;87.20;100152.38;5069574;28;20045;-59
2023/02/01 06:14:37;;;;;;;19.90;4.47;;;;;;;4.56;87.93;100143.78;5070652;28;20049;-61
2023/02/01 06:17:06;;;;;;;21.73;4.13;;;;;;;4.56;88.24;100138.56;5070361;28;20048;-59
2023/02/01 06:19:33;;;;;;;30.27;4.53;;;;;;;4.54;88.24;100132.56;5071571;28;20056;-58
2023/02/01 06:22:00;;;;;;;35.47;6.53;;;;;;;4.51;88.61;100138.75;5066706;28;20148;-58
2023/02/01 06:24:27;;;;;;;25.10;4.65;;;;;;;4.49;89.93;100130.13;5064667;28;20057;-59
2023/02/01 06:26:54;;;;;;;24.80;5.47;;;;;;;4.44;90.22;100150.34;5070890;28;20053;-59
2023/02/01 06:29:22;;;;;;;27.33;5.30;;;;;;;4.42;90.89;100140.91;5071042;28;20048;-59
2023/02/01 06:31:49;;;;;;;31.38;5.72;;;;;;;4.37;91.38;100133.28;5067730;28;20064;-59
2023/02/01 06:34:16;;;;;;;27.75;5.07;;;;;;;4.34;91.87;100135.16;5065687;28;20088;-61
2023/02/01 06:36:43;;;;;;;30.08;5.00;;;;;;;4.35;91.98;100139.44;5070796;28;20056;-57
2023/02/01 06:39:15;;;;;;;27.20;4.65;;;;;;;4.32;92.43;100125.66;5069024;28;20063;-60
2023/02/01 06:41:49;;;;;;;24.98;5.40;;;;;;;4.35;92.14;100135.09;5070955;28;20059;-60
2023/02/01 06:44:16;;;;;;;32.72;5.20;;;;;;;4.31;92.09;100129.13;5071702;28;20067;-57
2023/02/01 06:46:43;;;;;;;27.35;4.82;;;;;;;4.24;92.64;100132.09;5070228;28;20049;-59
2023/02/01 06:49:11;;;;;;;31.48;5.63;;;;;;;4.23;93.71;100136.44;5070232;28;20056;-58
2023/02/01 06:51:38;;;;;;;29.40;4.90;;;;;;;4.28;92.21;100137.09;5070868;28;20139;-58
2023/02/01 06:54:05;;;;;;;20.48;4.57;;;;;;;4.22;92.94;100111.28;5068714;28;20155;-58
2023/02/01 06:56:32;;;;;;;21.60;5.22;;;;;;;4.25;93.26;100133.78;5070853;28;20164;-57
2023/02/01 06:59:00;;;;;;;21.80;5.28;;;;;;;4.26;92.92;100109.41;5071484;28;20050;-57
2023/02/01 07:01:27;;;;;;;22.33;5.28;;;;;;;4.27;92.47;100105.88;5066802;28;20067;-59
2023/02/01 07:03:54;;;;;;;26.70;5.30;;;;;;;4.28;91.78;100102.38;5070650;28;20090;-56
2023/02/01 07:06:21;;;;;;;20.58;4.30;;;;;;;4.28;90.88;100129.28;5070583;28;20088;-58
2023/02/01 07:08:49;;;;;;;28.33;5.30;;;;;;;4.34;90.67;100096.91;5063686;28;20156;-59
2023/02/01 07:11:18;;;;;;;25.92;4.30;;;;;;;4.37;90.57;100090.72;5070895;28;20468;-60
2023/02/01 07:13:45;;;;;;;26.50;4.95;;;;;;;4.33;90.39;100095.22;5070458;28;20080;-59
2023/02/01 07:16:17;;;;;;;24.83;5.43;;;;;;;4.32;89.42;100102.19;5069419;28;20102;-60
2023/02/01 07:18:45;;;;;;;28.73;5.72;;;;;;;4.35;89.42;100101.19;5070746;28;20087;-59
2023/02/01 07:21:12;;;;;;;21.98;4.75;;;;;;;4.35;89.83;100095.16;5071115;28;20068;-60
2023/02/01 07:23:39;;;;;;;21.48;4.60;;;;;;;4.27;90.35;100119.75;5072473;28;20106;-57
2023/02/01 07:26:09;;;;;;;26.60;4.95;;;;;;;4.33;90.50;100113.47;5065035;28;20137;-59
2023/02/01 07:28:37;;;;;;;29.92;6.10;;;;;;;4.31;89.97;100084.84;5068831;28;20583;-57
2023/02/01 07:31:13;;;;;;;27.00;5.05;;;;;;;4.38;90.11;100082.84;5069074;28;20530;-56
2023/02/01 07:33:40;;;;;;;;;;;;;;;4.34;91.40;100068.25;5067720;28;20058;-59
2023/02/01 07:36:11;;;;;;;21.58;4.68;;;;;;;4.26;91.54;100099.81;5066551;28;20319;-56
2023/02/01 07:38:38;;;;;;;17.23;4.68;;;;;;;4.27;92.31;100075.47;5070911;28;20048;-55
2023/02/01 07:41:06;;;;;;;20.63;4.57;;;;;;;4.23;92.27;100060.88;5066043;28;20155;-58
2023/02/01 07:43:34;;;;;;;30.13;4.80;;;;;;;4.23;92.27;100067.84;5062744;28;20052;-58
2023/02/01 07:46:02;;;;;;;24.70;4.32;;;;;;;4.28;92.41;100065.91;5070624;28;20530;-58
2023/02/01 07:48:31;;;;;;;25.55;5.05;;;;;;;4.31;93.47;100066.59;5070328;28;20059;-59
2023/02/01 07:51:04;;;;;;;17.50;4.43;;;;;;;4.29;93.31;100062.38;5066974;28;20056;-61
2023/02/01 07:53:32;;;;;;;18.02;4.10;;;;;;;4.23;95.23;100073.03;5070248;28;20055;-62
2023/02/01 07:56:00;;;;;;;19.48;4.65;;;;;;;4.20;96.12;100066.22;5071420;28;20048;-58
2023/02/01 07:58:28;;;;;;;21.55;4.68;;;;;;;4.17;95.93;100081.97;5070551;28;20075;-60
2023/02/01 08:03:42;;;;;;;25.67;5.18;;;;;;;4.01;99.01;100075.72;5071733;28;20135;-59
2023/02/01 08:06:09;;;;;;;21.65;4.53;;;;;;;3.93;99.74;100076.00;5070788;28;20053;-57
2023/02/01 08:08:36;;;;;;;15.05;3.72;;;;;;;3.87;100.00;100089.25;5070312;28;20079;-60
2023/02/01 08:11:05;;;;;;;19.80;4.05;;;;;;;3.73;100.00;100068.13;5061611;28;20094;-59
2023/02/01 08:13:35;;;;;;;14.20;3.65;;;;;;;3.58;100.00;100079.16;5061972;28;20066;-60
2023/02/01 08:16:05;;;;;;;16.52;3.42;;;;;;;3.49;100.00;100068.19;5068403;28;20068;-61
2023/02/01 08:18:33;;;;;;;17.65;4.43;;;;;;;3.41;100.00;100075.44;5067296;28;20048;-59
2023/02/01 08:21:08;;;;;;;20.13;4.32;;;;;;;3.53;100.00;100069.78;5068247;28;20052;-59
2023/02/01 08:23:36;;;;;;;22.38;4.85;;;;;;;3.43;100.00;100084.06;5065550;28;20541;-59
2023/02/01 08:26:18;;;;;;;24.27;4.30;;;;;;;3.36;100.00;100072.16;5062643;28;20242;-57
2023/02/01 08:28:48;;;;;;;20.90;4.20;;;;;;;3.35;100.00;100080.03;5068154;28;20064;-61
2023/02/01 08:31:17;;;;;;;21.80;5.43;;;;;;;3.32;100.00;100070.59;5068461;28;20053;-58
2023/02/01 08:33:49;;;;;;;18.23;4.63;;;;;;;3.33;100.00;100085.28;5068404;28;20061;-61
2023/02/01 08:36:17;;;;;;;11.98;3.70;;;;;;;3.28;100.00;100080.25;5067621;28;20052;-56
2023/02/01 08:38:44;;;;;;;16.75;3.70;;;;;;;3.32;100.00;100080.16;5069815;28;20132;-59
2023/02/01 08:41:13;;;;;;;14.43;3.70;;;;;;;3.31;100.00;100074.09;5069568;28;20048;-56
2023/02/01 08:43:41;;;;;;;13.07;3.33;;;;;;;3.23;100.00;100089.16;5068566;28;20044;-60
2023/02/01 08:46:08;;;;;;;17.48;3.85;;;;;;;3.21;100.00;100086.63;5065591;28;20135;-58
2023/02/01 08:48:36;;;;;;;15.55;3.55;;;;;;;3.24;100.00;100093.44;5068412;28;20495;-59
2023/02/01 08:51:09;;;;;;;16.58;4.00;;;;;;;3.22;100.00;100106.50;5067644;28;20112;-60
2023/02/01 08:53:37;;;;;;;12.82;4.15;;;;;;;3.18;100.00;100091.91;5060019;28;20413;-59
2023/02/01 08:56:05;;;;;;;18.85;3.65;;;;;;;3.18;100.00;100085.88;5063172;28;20135;-61
2023/02/01 08:58:33;;;;;;;10.40;3.90;;;;;;;3.18;100.00;100094.53;5068202;28;20045;-60
2023/02/01 09:01:13;;;;;;;16.75;4.00;;;;;;;3.20;100.00;100097.94;5068447;28;20534;-60
2023/02/01 09:03:40;;;;;;;11.85;3.92;;;;;;;3.18;100.00;100104.09;5064345;28;20057;-59
2023/02/01 09:06:12;;;;;;;16.83;4.65;;;;;;;3.19;100.00;100095.38;5064125;28;20060;-59
2023/02/01 09:08:40;;;;;;;14.40;3.85;;;;;;;3.20;100.00;100112.69;5060736;28;20044;-61
2023/02/01 09:11:12;;;;;;;10.20;3.55;;;;;;;3.21;100.00;100102.22;5068717;28;20139;-59
2023/02/01 09:13:39;;;;;;;11.02;3.72;;;;;;;3.21;100.00;100103.97;5063503;28;20147;-61
2023/02/01 09:16:06;;;;;;;10.20;2.72;;;;;;;3.24;100.00;100107.31;5068251;28;20663;-61
2023/02/01 09:18:34;;;;;;;8.73;2.85;;;;;;;3.23;100.00;100113.41;5068126;28;20049;-60
2023/02/01 09:21:07;;;;;;;14.00;3.58;;;;;;;3.25;100.00;100102.97;5067938;28;20139;-59
2023/02/01 09:23:34;;;;;;;8.70;3.60;;;;;;;3.30;100.00;100112.28;5059433;28;20127;-59
2023/02/01 09:26:03;;;;;;;13.30;3.50;;;;;;;3.33;100.00;100121.72;5063344;28;20136;-60
2023/02/01 09:28:31;;;;;;;8.73;3.10;;;;;;;3.38;100.00;100129.34;5067877;28;20436;-60
2023/02/01 09:30:58;;;;;;;11.52;2.78;;;;;;;3.40;100.00;100127.56;5067357;28;20049;-59
2023/02/01 09:33:27;;;;;;;12.68;2.67;;;;;;;3.45;100.00;100116.06;5067968;28;20535;-59
2023/02/01 09:36:02;;;;;;;11.77;1.92;;;;;;;3.44;100.00;100127.38;5054545;28;20666;-58
2023/02/01 09:38:30;;;;;;;;;;;;;;;3.48;100.00;100139.38;5063658;28;20053;-59
2023/02/01 09:40:58;;;;;;;8.20;2.25;;;;;;;3.51;100.00;100151.41;5074887;28;20004;-59
2023/02/01 09:43:39;;;;;;;6.82;1.83;;;;;;;3.55;100.00;100145.19;5074553;28;20062;-60
2023/02/01 09:46:31;;;;;;;5.85;1.73;;;;;;;3.52;100.00;100153.97;5073300;28;20049;-59
2023/02/01 09:49:05;;;;;;;8.48;1.50;;;;;;;3.52;100.00;100172.19;5068793;28;20235;-61
2023/02/01 09:51:44;;;;;;;9.95;2.35;;;;;;;3.54;100.00;100157.34;5073139;28;20465;-59
2023/02/01 09:54:19;;;;;;;6.40;1.60;;;;;;;3.50;100.00;100160.97;5072827;28;20135;-61
2023/02/01 09:56:55;;;;;;;8.40;1.50;;;;;;;3.51;100.00;100162.69;5074780;28;20479;-60
2023/02/01 09:59:50;;;;;;;5.97;2.15;;;;;;;3.50;100.00;100166.16;5072368;28;20052;-57
2023/02/01 10:02:21;;;;;;;4.20;1.50;;;;;;;3.56;100.00;100157.31;5072499;28;20045;-59
2023/02/01 10:04:49;;;;;;;6.13;1.42;;;;;;;3.63;100.00;100160.50;5068346;28;20075;-59
2023/02/01 10:07:28;;;;;;;7.13;2.03;;;;;;;3.61;100.00;100159.75;5074098;28;20072;-60
2023/02/01 10:09:55;;;;;;;8.82;2.08;;;;;;;3.58;100.00;100171.09;5068850;28;20143;-61
2023/02/01 10:12:43;;;;;;;7.63;1.92;;;;;;;3.59;100.00;100156.31;5071801;28;20048;-58
2023/02/01 10:15:19;;;;;;;8.10;1.83;;;;;;;3.52;100.00;100184.34;5074727;28;20102;-59
2023/02/01 10:18:10;;;;;;;5.00;1.17;;;;;;;3.48;100.00;100165.41;5071097;28;20044;-56
2023/02/01 10:21:09;;;;;;;10.23;2.22;;;;;;;3.44;100.00;100175.97;5073735;28;20127;-59
2023/02/01 10:24:10;;;;;;;6.88;1.95;;;;;;;3.42;100.00;100162.16;5066830;28;20119;-59
2023/02/01 10:27:05;;;;;;;12.15;2.08;;;;;;;3.42;100.00;100173.44;5063091;28;20045;-60
2023/02/01 10:29:41;;;;;;;8.45;2.10;;;;;;;3.47;100.00;100176.72;5057960;28;20090;-61
2023/02/01 10:32:22;;;;;;;6.25;1.95;;;;;;;3.53;100.00;100167.81;5074301;28;20052;-58
2023/02/01 10:34:57;;;;;;;13.65;2.60;;;;;;;3.55;100.00;100173.81;5073376;28;20066;-59
2023/02/01 10:37:29;;;;;;;9.27;2.05;;;;;;;3.55;100.00;100172.06;5063151;28;20052;-61
2023/02/01 10:39:57;;;;;;;15.38;2.17;;;;;;;3.59;100.00;100172.78;5073454;28;20135;-61
2023/02/01 10:42:26;;;;;;;6.88;2.33;;;;;;;3.70;100.00;100169.81;5074061;28;20106;-61
2023/02/01 10:44:56;;;;;;;10.68;2.22;;;;;;;3.68;100.00;100172.44;5073719;28;20139;-61
2023/02/01 10:47:23;;;;;;;9.45;2.05;;;;;;;3.74;100.00;100163.56;5067581;28;20439;-61
2023/02/01 10:50:17;;;;;;;9.90;2.08;;;;;;;3.76;100.00;100178.22;5073531;28;20048;-62
2023/02/01 10:52:56;;;;;;;14.63;2.55;;;;;;;3.71;100.00;100172.34;5062431;28;20136;-60
2023/02/01 10:55:37;;;;;;;7.80;1.98;;;;;;;3.71;100.00;100205.34;5060785;28;20102;-60
2023/02/01 10:58:15;;;;;;;12.05;2.28;;;;;;;3.69;100.00;100183.69;5070321;28;20056;-60
2023/02/01 11:00:51;;;;;;;;;;;;;;;3.69;100.00;100181.09;5065096;28;20098;-61
2023/02/01 11:03:42;;;;;;;8.17;1.77;;;;;;;3.70;100.00;100162.00;5068482;28;19927;-62
2023/02/01 11:06:10;;;;;;;6.97;1.60;;;;;;;3.77;100.00;100173.84;5070123;28;20174;-60
2023/02/01 11:08:59;;;;;;;10.07;2.13;;;;;;;3.76;100.00;100157.38;5069205;28;20051;-61
2023/02/01 11:11:28;;;;;;;9.98;2.72;;;;;;;3.76;100.00;100141.75;5065722;28;20060;-60
2023/02/01 11:14:01;;;;;;;8.38;2.13;;;;;;;3.87;100.00;100150.91;5068875;28;20053;-59
2023/02/01 11:16:54;;;;;;;6.47;1.58;;;;;;;3.88;100.00;100144.81;5069994;28;20048;-61
2023/02/01 11:19:22;;;;;;;6.82;2.38;;;;;;;3.89;100.00;100149.09;5063352;28;20132;-60
2023/02/01 11:21:51;;;;;;;14.05;2.85;;;;;;;3.87;100.00;100149.16;5070103;28;20059;-61
2023/02/01 11:24:32;;;;;;;12.25;2.25;;;;;;;3.91;100.00;100150.72;5067801;28;20067;-63
2023/02/01 11:27:02;;;;;;;14.48;3.05;;;;;;;3.94;100.00;100140.19;5068898;28;20049;-62
2023/02/01 11:29:38;;;;;;;12.82;2.45;;;;;;;4.04;100.00;100128.50;5063969;28;20048;-58
2023/02/01 11:32:08;;;;;;;14.20;2.65;;;;;;;4.19;100.00;100132.28;5066829;28;20592;-60
2023/02/01 11:34:42;;;;;;;15.35;2.45;;;;;;;4.35;100.00;100136.84;5061111;28;20586;-61
2023/02/01 11:37:31;;;;;;;13.68;3.28;;;;;;;4.47;100.00;100113.72;5060331;28;20075;-59
2023/02/01 11:40:00;;;;;;;15.07;3.92;;;;;;;4.53;100.00;100115.22;5066018;28;21016;-61
2023/02/01 11:42:28;;;;;;;9.65;2.30;;;;;;;4.61;100.00;100120.97;5067829;28;20658;-60
2023/02/01 11:45:19;;;;;;;9.20;2.45;;;;;;;4.68;100.00;100111.13;5067048;28;20159;-60
2023/02/01 11:47:51;;;;;;;18.20;2.88;;;;;;;4.68;100.00;100111.97;5061541;28;20139;-61
2023/02/01 11:50:25;;;;;;;12.00;2.58;;;;;;;4.65;100.00;100093.00;5066076;28;20059;-60
2023/02/01 11:53:05;;;;;;;13.05;2.50;;;;;;;4.66;100.00;100098.16;5067386;28;20084;-57
2023/02/01 11:55:47;;;;;;;11.10;2.45;;;;;;;4.72;100.00;100104.84;5069255;28;20123;-60
2023/02/01 11:58:45;;;;;;;17.15;2.95;;;;;;;4.77;100.00;100090.72;5070219;28;20052;-60
2023/02/01 12:01:46;;;;;;;11.57;2.38;;;;;;;4.83;100.00;100092.22;5067185;28;20114;-59
2023/02/01 12:04:41;;;;;;;12.77;3.10;;;;;;;4.88;100.00;100100.69;5066858;28;20131;-60
2023/02/01 12:07:26;;;;;;;13.20;2.33;;;;;;;4.99;100.00;100116.69;5068955;28;20508;-61
2023/02/01 12:10:04;;;;;;;13.05;3.20;;;;;;;5.02;99.18;100090.47;5063734;28;20056;-62
2023/02/01 12:12:44;;;;;;;10.27;3.08;;;;;;;5.14;98.16;100073.44;5067414;28;20531;-59
2023/02/01 12:15:23;;;;;;;10.13;2.20;;;;;;;5.40;96.00;100079.22;5067971;28;20139;-61